Time;durP1;ratioP1;P1;durP2;ratioP2;P2;SDS_P1;SDS_P2;PMS_P1;PMS_P2;Temp;Humidity;BMP_temperature;BMP_pressure;BME280_temperature;BME280_humidity;BME280_pressure;Samples;Min_cycle;Max_cycle;Signal;HPM_P1;HPM_P2
2022/04/09 00:00:22;;;;;;;;;13.25;11.25;;;;;;;;5074711;27;45498;-64
2022/04/09 00:02:47;;;;;;;;;12.75;9.50;;;;;;;;5078105;27;45479;-65
2022/04/09 00:05:13;;;;;;;;;7.75;7.75;;;;;;;;5081420;27;45463;-64
2022/04/09 00:07:39;;;;;;;;;8.50;8.50;;;;;;;;5072351;27;46029;-65
2022/04/09 00:10:05;;;;;;;;;7.00;7.00;;;;;;;;5081863;27;45462;-65
2022/04/09 00:12:30;;;;;;;;;10.50;10.50;;;;;;;;5073169;27;45586;-65
2022/04/09 00:14:56;;;;;;;;;8.50;8.50;;;;;;;;5074299;27;45370;-65
2022/04/09 00:17:21;;;;;;;;;5.75;5.75;;;;;;;;5080964;27;47509;-65
2022/04/09 00:19:46;;;;;;;;;8.00;7.00;;;;;;;;5067956;27;45509;-65
2022/04/09 00:22:11;;;;;;;;;6.50;6.50;;;;;;;;5079161;27;45664;-65
2022/04/09 00:24:37;;;;;;;;;6.25;6.25;;;;;;;;5076568;27;45801;-65
2022/04/09 00:27:02;;;;;;;;;6.00;6.00;;;;;;;;5074719;27;45384;-65
2022/04/09 00:29:27;;;;;;;;;8.00;8.00;;;;;;;;5076320;27;45266;-65
2022/04/09 00:31:52;;;;;;;;;8.25;7.00;;;;;;;;5074930;27;45401;-65
2022/04/09 00:34:18;;;;;;;;;9.50;8.25;;;;;;;;5067396;27;45595;-65
2022/04/09 00:36:43;;;;;;;;;7.75;7.75;;;;;;;;5075035;27;45411;-66
2022/04/09 00:39:08;;;;;;;;;10.25;7.50;;;;;;;;5078026;27;46136;-65
2022/04/09 00:41:33;;;;;;;;;10.75;8.50;;;;;;;;5077718;27;45467;-66
2022/04/09 00:43:58;;;;;;;;;9.50;9.50;;;;;;;;5074103;27;45473;-65
2022/04/09 00:46:24;;;;;;;;;11.00;10.00;;;;;;;;5077172;27;46990;-65
2022/04/09 00:48:49;;;;;;;;;10.75;8.00;;;;;;;;5076288;27;45448;-65
2022/04/09 00:51:14;;;;;;;;;13.25;10.75;;;;;;;;5077686;27;45426;-64
2022/04/09 00:53:41;;;;;;;;;9.75;9.75;;;;;;;;5077797;27;45395;-65
2022/04/09 00:56:20;;;;;;;;;7.50;7.50;;;;;;;;5072582;27;48578;-65
2022/04/09 00:58:50;;;;;;;;;6.50;6.00;;;;;;;;5058681;28;45900;-65
2022/04/09 01:01:17;;;;;;;;;6.50;6.50;;;;;;;;5066674;27;45522;-64
2022/04/09 01:03:42;;;;;;;;;8.25;6.75;;;;;;;;5064955;27;45287;-64
2022/04/09 01:06:08;;;;;;;;;11.25;8.75;;;;;;;;5062413;28;47042;-64
2022/04/09 01:08:34;;;;;;;;;7.50;6.00;;;;;;;;5056010;28;46151;-64
2022/04/09 01:10:59;;;;;;;;;4.50;4.50;;;;;;;;5061192;27;45346;-64
2022/04/09 01:13:25;;;;;;;;;4.00;3.00;;;;;;;;5063584;28;45495;-64
2022/04/09 01:15:50;;;;;;;;;3.00;3.00;;;;;;;;5067459;27;45530;-64
2022/04/09 01:18:15;;;;;;;;;11.50;7.00;;;;;;;;5063717;27;45728;-66
2022/04/09 01:20:41;;;;;;;;;5.00;2.50;;;;;;;;5071868;28;45561;-64
2022/04/09 01:23:06;;;;;;;;;4.75;2.00;;;;;;;;5076075;27;45474;-64
2022/04/09 01:25:31;;;;;;;;;3.50;2.00;;;;;;;;5072544;27;47509;-68
2022/04/09 01:27:57;;;;;;;;;3.00;3.00;;;;;;;;5072727;27;45623;-64
2022/04/09 01:30:22;;;;;;;;;1.25;1.25;;;;;;;;5072240;28;45422;-65
2022/04/09 01:32:47;;;;;;;;;3.00;3.00;;;;;;;;5072634;28;45509;-64
2022/04/09 01:35:12;;;;;;;;;5.75;5.75;;;;;;;;5076395;27;45783;-64
2022/04/09 01:37:38;;;;;;;;;7.00;6.00;;;;;;;;5073134;27;45416;-64
2022/04/09 01:40:03;;;;;;;;;4.75;4.25;;;;;;;;5073997;27;45507;-64
2022/04/09 01:42:29;;;;;;;;;5.00;3.00;;;;;;;;5073428;27;45550;-65
2022/04/09 01:44:54;;;;;;;;;3.00;3.00;;;;;;;;5073849;27;46244;-64
2022/04/09 01:47:19;;;;;;;;;3.00;2.75;;;;;;;;5075305;27;45865;-65
2022/04/09 01:49:44;;;;;;;;;6.50;6.50;;;;;;;;5071286;28;45597;-65
2022/04/09 01:52:10;;;;;;;;;5.00;5.00;;;;;;;;5071773;27;45416;-65
2022/04/09 01:54:35;;;;;;;;;7.00;7.00;;;;;;;;5072718;27;46795;-64
2022/04/09 01:57:00;;;;;;;;;10.75;7.75;;;;;;;;5072884;28;45520;-64
2022/04/09 01:59:25;;;;;;;;;5.50;5.50;;;;;;;;5075891;27;45445;-64
2022/04/09 02:01:50;;;;;;;;;8.00;6.00;;;;;;;;5073563;28;45562;-64
2022/04/09 02:04:16;;;;;;;;;7.00;7.00;;;;;;;;5071816;27;46758;-64
2022/04/09 02:06:42;;;;;;;;;8.00;7.50;;;;;;;;5073302;28;45473;-65
2022/04/09 02:09:11;;;;;;;;;6.75;5.50;;;;;;;;5072267;27;45493;-65
2022/04/09 02:11:36;;;;;;;;;6.50;6.50;;;;;;;;5073387;27;45418;-65
2022/04/09 02:14:02;;;;;;;;;11.25;11.25;;;;;;;;5073888;27;46387;-65
2022/04/09 02:16:28;;;;;;;;;11.00;8.25;;;;;;;;5072223;28;45522;-65
2022/04/09 02:18:53;;;;;;;;;10.25;8.00;;;;;;;;5072637;28;45524;-65
2022/04/09 02:21:18;;;;;;;;;7.00;7.00;;;;;;;;5073897;27;45496;-65
2022/04/09 02:23:43;;;;;;;;;10.50;8.25;;;;;;;;5070621;28;47366;-65
2022/04/09 02:26:08;;;;;;;;;9.25;8.25;;;;;;;;5075364;27;45239;-65
2022/04/09 02:28:34;;;;;;;;;6.75;6.75;;;;;;;;5068195;28;45600;-65
2022/04/09 02:31:00;;;;;;;;;8.50;8.50;;;;;;;;5070007;27;45576;-65
2022/04/09 02:33:25;;;;;;;;;10.50;10.50;;;;;;;;5072482;27;45720;-65
2022/04/09 02:35:50;;;;;;;;;8.25;8.25;;;;;;;;5073279;28;45631;-65
2022/04/09 02:38:15;;;;;;;;;11.75;9.50;;;;;;;;5072904;28;45501;-65
2022/04/09 02:40:41;;;;;;;;;7.00;7.00;;;;;;;;5073486;27;45445;-65
2022/04/09 02:43:06;;;;;;;;;11.00;10.00;;;;;;;;5071605;28;45807;-66
2022/04/09 02:45:32;;;;;;;;;11.50;8.25;;;;;;;;5071571;28;45946;-65
2022/04/09 02:47:57;;;;;;;;;10.50;7.75;;;;;;;;5073688;27;45463;-65
2022/04/09 02:50:22;;;;;;;;;9.00;9.00;;;;;;;;5074480;28;45429;-66
2022/04/09 02:52:47;;;;;;;;;11.00;11.00;;;;;;;;5073363;27;46605;-66
2022/04/09 02:55:13;;;;;;;;;9.75;8.75;;;;;;;;5072249;28;45226;-65
2022/04/09 02:57:39;;;;;;;;;11.00;10.25;;;;;;;;5073589;27;45191;-65
2022/04/09 03:00:07;;;;;;;;;13.75;12.00;;;;;;;;5072486;28;45548;-65
2022/04/09 03:02:34;;;;;;;;;12.25;11.75;;;;;;;;5073819;28;47060;-65
2022/04/09 03:04:59;;;;;;;;;10.50;7.75;;;;;;;;5055540;28;45491;-65
2022/04/09 03:07:25;;;;;;;;;11.75;11.75;;;;;;;;5067588;28;45391;-64
2022/04/09 03:09:50;;;;;;;;;12.75;12.00;;;;;;;;5071280;27;45332;-65
2022/04/09 03:12:15;;;;;;;;;10.00;10.00;;;;;;;;5072476;27;46246;-67
2022/04/09 03:14:43;;;;;;;;;10.50;10.50;;;;;;;;5071218;27;46024;-67
2022/04/09 03:17:09;;;;;;;;;11.00;11.00;;;;;;;;5073919;28;45474;-67
2022/04/09 03:19:35;;;;;;;;;10.50;8.25;;;;;;;;5076583;27;45462;-67
2022/04/09 03:22:00;;;;;;;;;6.75;6.75;;;;;;;;5057367;28;48547;-67
2022/04/09 03:24:25;;;;;;;;;12.00;8.00;;;;;;;;5065111;28;45385;-67
2022/04/09 03:26:50;;;;;;;;;10.25;10.25;;;;;;;;5075666;28;45420;-66
2022/04/09 03:29:15;;;;;;;;;11.50;11.00;;;;;;;;5078807;27;45626;-66
2022/04/09 03:31:41;;;;;;;;;9.75;9.75;;;;;;;;5076513;27;46508;-67
2022/04/09 03:34:06;;;;;;;;;13.25;12.25;;;;;;;;5075895;27;45484;-67
2022/04/09 03:36:31;;;;;;;;;13.50;13.50;;;;;;;;5074199;28;45314;-66
2022/04/09 03:38:56;;;;;;;;;10.25;10.25;;;;;;;;5076012;28;45468;-66
2022/04/09 03:41:22;;;;;;;;;13.25;12.50;;;;;;;;5077864;27;45311;-67
2022/04/09 03:43:49;;;;;;;;;13.75;13.75;;;;;;;;5073380;28;45456;-67
2022/04/09 03:46:15;;;;;;;;;13.25;11.25;;;;;;;;5073138;27;45347;-66
2022/04/09 03:48:41;;;;;;;;;12.25;12.25;;;;;;;;5075009;27;45546;-67
2022/04/09 03:51:06;;;;;;;;;15.75;14.50;;;;;;;;5074595;28;47726;-66
2022/04/09 03:53:32;;;;;;;;;17.75;16.25;;;;;;;;5075507;27;45367;-66
2022/04/09 03:55:57;;;;;;;;;12.00;12.00;;;;;;;;5076128;28;45512;-66
2022/04/09 03:58:23;;;;;;;;;13.75;12.75;;;;;;;;5075672;28;45433;-65
2022/04/09 04:00:48;;;;;;;;;16.50;14.00;;;;;;;;5075736;27;47025;-65
2022/04/09 04:03:14;;;;;;;;;11.00;10.50;;;;;;;;5073058;27;45544;-65
2022/04/09 04:05:40;;;;;;;;;15.00;14.50;;;;;;;;5073737;28;45554;-65
2022/04/09 04:08:05;;;;;;;;;18.00;16.75;;;;;;;;5063998;27;46820;-65
2022/04/09 04:10:31;;;;;;;;;15.50;12.75;;;;;;;;5055587;28;45520;-65
2022/04/09 04:12:56;;;;;;;;;14.00;13.00;;;;;;;;5066043;28;45650;-67
2022/04/09 04:15:22;;;;;;;;;16.50;14.75;;;;;;;;5071984;27;45586;-67
2022/04/09 04:17:49;;;;;;;;;12.00;11.75;;;;;;;;5075768;27;45565;-66
2022/04/09 04:20:14;;;;;;;;;16.25;13.25;;;;;;;;5076169;28;48536;-68
2022/04/09 04:22:40;;;;;;;;;12.75;12.75;;;;;;;;5074226;27;45353;-67
2022/04/09 04:25:05;;;;;;;;;16.50;12.50;;;;;;;;5073090;27;45380;-67
2022/04/09 04:27:31;;;;;;;;;18.25;15.50;;;;;;;;5073935;27;45475;-66
2022/04/09 04:29:59;;;;;;;;;18.00;17.50;;;;;;;;5074346;27;45302;-66
2022/04/09 04:32:25;;;;;;;;;14.00;14.00;;;;;;;;5076683;27;45555;-65
2022/04/09 04:34:50;;;;;;;;;17.00;17.00;;;;;;;;5075393;27;45505;-65
2022/04/09 04:37:15;;;;;;;;;19.50;19.25;;;;;;;;5074170;27;45513;-65
2022/04/09 04:39:40;;;;;;;;;15.50;14.50;;;;;;;;5073180;27;46619;-66
2022/04/09 04:42:07;;;;;;;;;19.50;19.50;;;;;;;;5075268;28;45557;-66
2022/04/09 04:44:32;;;;;;;;;16.00;16.00;;;;;;;;5074943;27;45255;-66
2022/04/09 04:46:57;;;;;;;;;17.50;17.50;;;;;;;;5076060;28;45445;-65
2022/04/09 04:49:23;;;;;;;;;17.50;17.00;;;;;;;;5073657;27;48283;-66
2022/04/09 04:51:48;;;;;;;;;17.25;17.25;;;;;;;;5075184;27;45372;-66
2022/04/09 04:54:13;;;;;;;;;17.75;17.00;;;;;;;;5073868;27;45255;-66
2022/04/09 04:56:38;;;;;;;;;12.25;12.25;;;;;;;;5069722;27;45388;-66
2022/04/09 04:59:04;;;;;;;;;16.75;16.75;;;;;;;;5061807;28;46432;-66
2022/04/09 05:01:29;;;;;;;;;14.75;13.50;;;;;;;;5058393;28;45442;-66
2022/04/09 05:03:54;;;;;;;;;23.50;21.50;;;;;;;;5056304;28;45360;-67
2022/04/09 05:06:20;;;;;;;;;12.00;12.00;;;;;;;;5057926;28;45505;-67
2022/04/09 05:08:45;;;;;;;;;18.00;17.50;;;;;;;;5056818;27;46492;-67
2022/04/09 05:11:11;;;;;;;;;19.25;14.50;;;;;;;;5065475;28;46107;-66
2022/04/09 05:13:36;;;;;;;;;15.50;14.75;;;;;;;;5065038;28;46390;-66
2022/04/09 05:16:01;;;;;;;;;17.50;15.00;;;;;;;;5067212;28;45543;-67
2022/04/09 05:18:27;;;;;;;;;16.00;16.00;;;;;;;;5054769;28;45337;-67
2022/04/09 05:20:52;;;;;;;;;16.50;16.50;;;;;;;;5065693;28;47339;-66
2022/04/09 05:23:17;;;;;;;;;20.25;18.75;;;;;;;;5057605;28;45476;-66
2022/04/09 05:25:42;;;;;;;;;11.75;9.00;;;;;;;;5060824;28;45586;-66
2022/04/09 05:28:08;;;;;;;;;21.50;20.25;;;;;;;;5057637;28;47490;-66
2022/04/09 05:30:33;;;;;;;;;14.50;13.25;;;;;;;;5061958;28;45545;-67
2022/04/09 05:32:58;;;;;;;;;15.50;15.50;;;;;;;;5061293;27;45298;-67
2022/04/09 05:35:24;;;;;;;;;13.00;13.00;;;;;;;;5057549;28;45793;-67
2022/04/09 05:37:51;;;;;;;;;11.75;11.75;;;;;;;;5065326;27;48195;-67
2022/04/09 05:40:16;;;;;;;;;13.50;13.50;;;;;;;;5058283;28;45451;-67
2022/04/09 05:42:41;;;;;;;;;13.50;12.00;;;;;;;;5063758;28;45551;-67
2022/04/09 05:45:07;;;;;;;;;12.50;10.00;;;;;;;;5062367;27;45386;-66
2022/04/09 05:47:32;;;;;;;;;12.75;11.75;;;;;;;;5063365;27;45944;-67
2022/04/09 05:49:58;;;;;;;;;13.25;12.00;;;;;;;;5057534;27;45380;-68
2022/04/09 05:52:23;;;;;;;;;14.00;12.00;;;;;;;;5057865;28;45569;-67
2022/04/09 05:54:49;;;;;;;;;14.00;12.75;;;;;;;;5060080;28;45367;-67
2022/04/09 05:57:14;;;;;;;;;12.75;12.75;;;;;;;;5059934;28;45558;-67
2022/04/09 05:59:40;;;;;;;;;11.25;11.25;;;;;;;;5060818;28;45474;-66
2022/04/09 06:02:05;;;;;;;;;16.50;12.00;;;;;;;;5055252;28;45436;-66
2022/04/09 06:04:31;;;;;;;;;12.75;12.00;;;;;;;;5057462;27;45494;-66
2022/04/09 06:06:56;;;;;;;;;12.50;10.25;;;;;;;;5056494;28;46321;-67
2022/04/09 06:09:21;;;;;;;;;19.25;13.50;;;;;;;;5059937;27;45482;-67
2022/04/09 06:11:47;;;;;;;;;12.00;12.00;;;;;;;;5069760;27;45384;-66
2022/04/09 06:14:13;;;;;;;;;12.25;12.25;;;;;;;;5068526;28;45392;-66
2022/04/09 06:16:40;;;;;;;;;12.25;12.25;;;;;;;;5071141;27;46065;-66
2022/04/09 06:19:06;;;;;;;;;12.00;12.00;;;;;;;;5057826;27;45537;-65
2022/04/09 06:21:33;;;;;;;;;19.75;17.00;;;;;;;;5056815;28;45518;-66
2022/04/09 06:23:58;;;;;;;;;16.00;13.75;;;;;;;;5064705;28;45402;-66
2022/04/09 06:26:23;;;;;;;;;15.25;15.25;;;;;;;;5068035;27;45450;-66
2022/04/09 06:28:49;;;;;;;;;22.75;22.75;;;;;;;;5069834;28;45412;-66
2022/04/09 06:31:14;;;;;;;;;23.00;21.00;;;;;;;;5058197;28;45286;-68
2022/04/09 06:33:39;;;;;;;;;20.00;18.00;;;;;;;;5072510;28;45579;-66
2022/04/09 06:36:05;;;;;;;;;18.00;14.25;;;;;;;;5056073;28;47754;-66
2022/04/09 06:38:31;;;;;;;;;14.75;14.75;;;;;;;;5069506;27;45412;-66
2022/04/09 06:40:56;;;;;;;;;13.00;13.00;;;;;;;;5066957;28;45378;-67
2022/04/09 06:43:22;;;;;;;;;11.50;11.00;;;;;;;;5069692;27;45572;-66
2022/04/09 06:45:47;;;;;;;;;16.50;16.50;;;;;;;;5067630;28;48125;-68
2022/04/09 06:48:12;;;;;;;;;12.00;12.00;;;;;;;;5064408;28;45379;-67
2022/04/09 06:50:37;;;;;;;;;15.75;14.75;;;;;;;;5067153;28;45767;-68
2022/04/09 06:53:03;;;;;;;;;19.00;16.25;;;;;;;;5071673;27;45494;-68
2022/04/09 06:55:28;;;;;;;;;21.25;18.00;;;;;;;;5071879;27;45384;-67
2022/04/09 06:57:59;;;;;;;;;19.75;17.50;;;;;;;;5073784;28;46128;-65
2022/04/09 07:00:24;;;;;;;;;15.50;14.50;;;;;;;;5074404;27;45465;-67
2022/04/09 07:02:49;;;;;;;;;17.25;16.25;;;;;;;;5073169;28;45475;-66
2022/04/09 07:05:14;;;;;;;;;18.00;14.25;;;;;;;;5074300;27;45696;-66
2022/04/09 07:07:40;;;;;;;;;18.25;18.25;;;;;;;;5071294;28;45468;-67
2022/04/09 07:10:09;;;;;;;;;14.75;14.75;;;;;;;;5073789;27;45372;-68
2022/04/09 07:12:35;;;;;;;;;15.50;13.00;;;;;;;;5072254;28;45247;-67
2022/04/09 07:15:01;;;;;;;;;18.00;18.00;;;;;;;;5068390;28;47894;-68
2022/04/09 07:17:26;;;;;;;;;10.75;10.75;;;;;;;;5068470;27;45427;-69
2022/04/09 07:19:52;;;;;;;;;14.75;12.75;;;;;;;;5071998;27;45351;-69
2022/04/09 07:22:17;;;;;;;;;11.75;11.75;;;;;;;;5073973;27;45470;-68
2022/04/09 07:24:43;;;;;;;;;12.00;11.25;;;;;;;;5074888;27;45545;-69
2022/04/09 07:27:08;;;;;;;;;16.50;14.75;;;;;;;;5070875;28;45463;-68
2022/04/09 07:29:33;;;;;;;;;17.25;15.00;;;;;;;;5073686;28;45282;-66
2022/04/09 07:31:59;;;;;;;;;15.00;13.25;;;;;;;;5069524;28;45470;-68
2022/04/09 07:34:24;;;;;;;;;13.25;13.00;;;;;;;;5071056;28;45937;-68
2022/04/09 07:36:49;;;;;;;;;16.50;13.50;;;;;;;;5075000;27;45404;-68
2022/04/09 07:39:15;;;;;;;;;13.25;13.25;;;;;;;;5069828;27;45462;-67
2022/04/09 07:41:40;;;;;;;;;11.25;9.25;;;;;;;;5071526;27;45380;-69
2022/04/09 07:44:06;;;;;;;;;14.75;14.75;;;;;;;;5071056;27;47855;-68
2022/04/09 07:46:31;;;;;;;;;14.00;12.75;;;;;;;;5066015;28;45411;-68
2022/04/09 07:48:56;;;;;;;;;21.25;17.75;;;;;;;;5058062;28;45484;-68
2022/04/09 07:51:21;;;;;;;;;15.75;15.75;;;;;;;;5061784;27;45617;-68
2022/04/09 07:53:47;;;;;;;;;14.00;13.00;;;;;;;;5060372;28;45592;-67
2022/04/09 07:56:12;;;;;;;;;16.25;16.25;;;;;;;;5061123;28;45805;-67
2022/04/09 07:58:37;;;;;;;;;18.25;16.00;;;;;;;;5062794;27;45352;-68
2022/04/09 08:01:02;;;;;;;;;18.50;14.50;;;;;;;;5062397;27;45312;-67
2022/04/09 08:03:27;;;;;;;;;14.50;14.50;;;;;;;;5062980;28;46238;-67
2022/04/09 08:05:53;;;;;;;;;14.50;13.75;;;;;;;;5061156;28;45478;-67
2022/04/09 08:08:18;;;;;;;;;15.25;14.00;;;;;;;;5068309;27;45805;-67
2022/04/09 08:10:43;;;;;;;;;9.50;9.50;;;;;;;;5067318;27;45442;-67
2022/04/09 08:13:09;;;;;;;;;6.50;6.50;;;;;;;;5062224;28;48643;-67
2022/04/09 08:15:34;;;;;;;;;8.25;7.75;;;;;;;;5072469;27;45381;-66
2022/04/09 08:18:02;;;;;;;;;10.75;10.75;;;;;;;;5062826;28;45349;-67
2022/04/09 08:20:27;;;;;;;;;26.00;26.00;;;;;;;;5061586;28;47469;-66
2022/04/09 08:22:52;;;;;;;;;7.75;7.75;;;;;;;;5063575;28;47631;-66
2022/04/09 08:25:18;;;;;;;;;11.00;8.75;;;;;;;;5057178;28;45440;-66
2022/04/09 08:27:44;;;;;;;;;8.00;6.25;;;;;;;;5074094;27;47360;-65
2022/04/09 08:30:10;;;;;;;;;2.00;2.00;;;;;;;;5070681;27;45554;-65
2022/04/09 08:32:36;;;;;;;;;11.00;11.00;;;;;;;;5072796;28;45904;-67
2022/04/09 08:35:02;;;;;;;;;8.50;7.50;;;;;;;;5072722;28;45708;-67
2022/04/09 08:37:27;;;;;;;;;9.50;8.25;;;;;;;;5074542;27;45564;-66
2022/04/09 08:39:54;;;;;;;;;6.75;6.25;;;;;;;;5072286;27;45462;-67
2022/04/09 08:42:21;;;;;;;;;8.25;8.25;;;;;;;;5073396;28;46286;-66
2022/04/09 08:44:46;;;;;;;;;9.25;9.00;;;;;;;;5072682;28;45610;-67
2022/04/09 08:47:13;;;;;;;;;10.25;10.25;;;;;;;;5071563;27;45355;-67
2022/04/09 08:49:39;;;;;;;;;7.75;6.50;;;;;;;;5074020;28;45338;-67
2022/04/09 08:52:05;;;;;;;;;13.25;8.25;;;;;;;;5075729;28;47530;-65
2022/04/09 08:54:31;;;;;;;;;9.00;9.00;;;;;;;;5076067;28;45429;-66
2022/04/09 08:56:56;;;;;;;;;8.00;8.00;;;;;;;;5074815;28;45377;-67
2022/04/09 08:59:21;;;;;;;;;9.25;6.50;;;;;;;;5073730;28;45395;-65
2022/04/09 09:01:47;;;;;;;;;8.00;8.00;;;;;;;;5069312;27;46577;-66
2022/04/09 09:04:15;;;;;;;;;8.00;8.00;;;;;;;;5068864;28;45410;-67
2022/04/09 09:06:44;;;;;;;;;8.00;8.00;;;;;;;;5069538;28;45804;-66
2022/04/09 09:09:24;;;;;;;;;5.25;5.25;;;;;;;;5067844;28;45651;-67
2022/04/09 09:11:50;;;;;;;;;8.00;7.00;;;;;;;;5065704;28;46962;-66
2022/04/09 09:14:25;;;;;;;;;7.00;7.00;;;;;;;;5060574;28;46060;-65
2022/04/09 09:16:51;;;;;;;;;10.00;8.75;;;;;;;;5064378;27;45390;-66
2022/04/09 09:19:17;;;;;;;;;8.00;8.00;;;;;;;;5064206;27;45344;-65
2022/04/09 09:21:52;;;;;;;;;9.25;9.00;;;;;;;;5062519;27;45787;-65
2022/04/09 09:24:18;;;;;;;;;14.25;12.75;;;;;;;;5074417;28;45518;-66
2022/04/09 09:26:46;;;;;;;;;9.50;8.75;;;;;;;;5066246;28;45405;-66
2022/04/09 09:29:22;;;;;;;;;9.75;9.50;;;;;;;;5070328;27;45281;-67
2022/04/09 09:31:50;;;;;;;;;8.75;8.75;;;;;;;;5072660;27;47048;-71
2022/04/09 09:34:16;;;;;;;;;11.25;10.00;;;;;;;;5069776;27;45359;-65
2022/04/09 09:36:43;;;;;;;;;11.75;10.25;;;;;;;;5075504;27;45370;-67
2022/04/09 09:39:09;;;;;;;;;7.50;7.50;;;;;;;;5063490;27;45500;-65
2022/04/09 09:41:45;;;;;;;;;12.50;9.50;;;;;;;;5064486;27;46606;-67
2022/04/09 09:44:10;;;;;;;;;7.50;7.50;;;;;;;;5069009;27;45578;-66
2022/04/09 09:46:36;;;;;;;;;7.75;7.75;;;;;;;;5064751;27;45361;-66
2022/04/09 09:49:01;;;;;;;;;6.75;5.50;;;;;;;;5061552;27;45371;-67
2022/04/09 09:51:27;;;;;;;;;8.50;8.50;;;;;;;;5067512;27;45836;-66
2022/04/09 09:54:04;;;;;;;;;7.75;5.75;;;;;;;;5061937;27;50525;-66
2022/04/09 09:56:36;;;;;;;;;8.00;8.00;;;;;;;;5072885;28;45153;-67
2022/04/09 09:59:03;;;;;;;;;9.50;9.25;;;;;;;;5071963;28;45395;-65
2022/04/09 10:01:28;;;;;;;;;11.25;10.00;;;;;;;;5068424;28;48713;-65
2022/04/09 10:03:54;;;;;;;;;9.00;9.00;;;;;;;;5066090;27;45469;-65
2022/04/09 10:06:20;;;;;;;;;8.00;8.00;;;;;;;;5067502;27;45411;-67
2022/04/09 10:08:47;;;;;;;;;5.00;5.00;;;;;;;;5067736;28;45554;-66
2022/04/09 10:11:12;;;;;;;;;6.00;6.00;;;;;;;;5060426;27;46188;-66
2022/04/09 10:13:43;;;;;;;;;6.00;6.00;;;;;;;;5061730;28;45600;-66
2022/04/09 10:16:08;;;;;;;;;10.25;10.00;;;;;;;;5063840;28;45389;-66
2022/04/09 10:18:34;;;;;;;;;6.50;6.50;;;;;;;;5060212;28;45431;-66
2022/04/09 10:21:01;;;;;;;;;5.50;5.50;;;;;;;;5063783;27;47008;-66
2022/04/09 10:23:36;;;;;;;;;8.50;8.50;;;;;;;;5059640;27;45310;-65
2022/04/09 10:26:01;;;;;;;;;8.50;8.00;;;;;;;;5065525;28;45386;-65
2022/04/09 10:28:30;;;;;;;;;9.75;9.25;;;;;;;;5062220;28;45447;-65
2022/04/09 10:30:55;;;;;;;;;11.75;9.25;;;;;;;;5067779;27;46433;-66
2022/04/09 10:33:22;;;;;;;;;8.00;8.00;;;;;;;;5070341;28;45719;-66
2022/04/09 10:35:48;;;;;;;;;12.75;10.00;;;;;;;;5073569;27;45229;-66
2022/04/09 10:38:20;;;;;;;;;13.75;12.25;;;;;;;;5063106;28;45524;-66
2022/04/09 10:40:45;;;;;;;;;11.25;11.25;;;;;;;;5071681;28;45706;-67
2022/04/09 10:43:23;;;;;;;;;9.50;9.50;;;;;;;;5065385;28;46081;-66
2022/04/09 10:46:00;;;;;;;;;10.25;8.75;;;;;;;;5066816;27;45408;-66
2022/04/09 10:48:29;;;;;;;;;9.00;9.00;;;;;;;;5075158;27;45351;-66
2022/04/09 10:50:57;;;;;;;;;8.75;8.75;;;;;;;;5057032;28;46414;-67
2022/04/09 10:53:24;;;;;;;;;9.75;9.00;;;;;;;;5075721;27;45363;-66
2022/04/09 10:56:08;;;;;;;;;8.50;7.25;;;;;;;;5073969;27;45404;-67
2022/04/09 10:58:53;;;;;;;;;8.00;6.50;;;;;;;;5068104;28;45448;-66
2022/04/09 11:01:37;;;;;;;;;9.25;9.25;;;;;;;;5066842;28;48352;-66
2022/04/09 11:04:21;;;;;;;;;6.75;6.75;;;;;;;;5066998;27;45514;-66
2022/04/09 11:06:59;;;;;;;;;9.75;9.75;;;;;;;;5071608;28;45550;-66
2022/04/09 11:09:25;;;;;;;;;11.75;9.75;;;;;;;;5062515;27;45550;-67
2022/04/09 11:12:00;;;;;;;;;10.00;9.00;;;;;;;;5059638;28;45707;-67
2022/04/09 11:14:25;;;;;;;;;6.50;4.75;;;;;;;;5065483;28;45345;-67
2022/04/09 11:16:50;;;;;;;;;6.00;6.00;;;;;;;;5063674;27;45430;-66
2022/04/09 11:19:15;;;;;;;;;7.25;6.00;;;;;;;;5061626;28;45475;-66
2022/04/09 11:21:40;;;;;;;;;7.75;7.25;;;;;;;;5063887;28;47876;-66
2022/04/09 11:24:06;;;;;;;;;4.75;4.75;;;;;;;;5070632;28;46040;-66
2022/04/09 11:26:31;;;;;;;;;11.00;11.00;;;;;;;;5068115;27;45423;-66
2022/04/09 11:28:57;;;;;;;;;11.00;11.00;;;;;;;;5062876;27;45563;-65
2022/04/09 11:31:22;;;;;;;;;8.75;7.25;;;;;;;;5065228;28;45405;-66
2022/04/09 11:33:59;;;;;;;;;6.25;6.00;;;;;;;;5072141;28;45282;-66
2022/04/09 11:36:25;;;;;;;;;7.25;7.25;;;;;;;;5073397;27;45433;-66
2022/04/09 11:38:50;;;;;;;;;8.00;7.50;;;;;;;;5071742;28;45691;-66
2022/04/09 11:41:19;;;;;;;;;10.25;8.50;;;;;;;;5077090;28;47631;-66
2022/04/09 11:43:45;;;;;;;;;10.50;9.25;;;;;;;;5067068;27;45547;-66
2022/04/09 11:46:10;;;;;;;;;9.75;9.75;;;;;;;;5065080;28;45483;-66
2022/04/09 11:48:35;;;;;;;;;9.25;9.25;;;;;;;;5069030;27;45453;-66
2022/04/09 11:51:00;;;;;;;;;9.25;9.25;;;;;;;;5065437;27;46322;-67
2022/04/09 11:53:26;;;;;;;;;13.25;11.25;;;;;;;;5065614;27;45547;-67
2022/04/09 11:55:58;;;;;;;;;9.75;9.75;;;;;;;;5068229;28;45585;-67
2022/04/09 11:58:29;;;;;;;;;8.50;7.00;;;;;;;;5070992;27;46287;-66
2022/04/09 12:00:54;;;;;;;;;10.75;10.75;;;;;;;;5040373;27;46884;-66
2022/04/09 12:03:19;;;;;;;;;9.25;9.25;;;;;;;;5031668;28;46163;-66
2022/04/09 12:05:51;;;;;;;;;8.25;8.25;;;;;;;;5023173;28;45629;-66
2022/04/09 12:08:24;;;;;;;;;13.00;12.25;;;;;;;;5037333;28;45615;-66
2022/04/09 12:10:55;;;;;;;;;9.00;9.00;;;;;;;;5031360;28;46575;-66
2022/04/09 12:13:30;;;;;;;;;8.25;8.25;;;;;;;;5029835;28;45485;-66
2022/04/09 12:16:00;;;;;;;;;9.00;9.00;;;;;;;;5034921;28;45489;-67
2022/04/09 12:18:26;;;;;;;;;11.25;9.50;;;;;;;;5015043;28;45574;-66
2022/04/09 12:20:52;;;;;;;;;10.00;10.00;;;;;;;;5027103;28;45699;-66
2022/04/09 12:23:27;;;;;;;;;9.00;8.75;;;;;;;;5027505;28;45419;-66
2022/04/09 12:25:52;;;;;;;;;8.75;8.75;;;;;;;;5022652;28;45974;-67
2022/04/09 12:28:20;;;;;;;;;11.50;9.00;;;;;;;;5030115;28;45368;-66
2022/04/09 12:30:47;;;;;;;;;7.00;7.00;;;;;;;;5021771;28;46541;-66
2022/04/09 12:33:12;;;;;;;;;7.50;6.50;;;;;;;;5021732;28;45586;-66
2022/04/09 12:35:41;;;;;;;;;6.50;6.50;;;;;;;;5025774;28;45710;-67
2022/04/09 12:38:07;;;;;;;;;8.25;8.25;;;;;;;;5037809;28;45439;-66
2022/04/09 12:40:32;;;;;;;;;5.75;5.75;;;;;;;;5039067;28;47700;-67
2022/04/09 12:42:58;;;;;;;;;8.50;8.50;;;;;;;;5035298;28;45557;-67
2022/04/09 12:45:27;;;;;;;;;8.00;6.25;;;;;;;;5032273;28;45490;-66
2022/04/09 12:48:00;;;;;;;;;6.00;6.00;;;;;;;;5032549;28;45546;-65
2022/04/09 12:50:30;;;;;;;;;8.50;8.50;;;;;;;;5038756;28;48588;-66
2022/04/09 12:52:57;;;;;;;;;6.75;6.75;;;;;;;;5034091;28;45436;-66
2022/04/09 12:55:24;;;;;;;;;6.00;5.00;;;;;;;;5028712;28;45574;-68
2022/04/09 12:57:49;;;;;;;;;9.25;8.00;;;;;;;;5028890;28;45395;-67
2022/04/09 13:00:15;;;;;;;;;7.00;7.00;;;;;;;;5022406;28;47078;-65
2022/04/09 13:02:44;;;;;;;;;6.00;6.00;;;;;;;;5034617;28;45573;-66
2022/04/09 13:05:10;;;;;;;;;7.00;6.00;;;;;;;;5047846;28;45392;-66
2022/04/09 13:07:35;;;;;;;;;8.00;8.00;;;;;;;;5022737;28;45467;-65
2022/04/09 13:10:00;;;;;;;;;6.75;6.25;;;;;;;;5026290;28;48490;-64
2022/04/09 13:12:26;;;;;;;;;4.50;4.50;;;;;;;;5042187;28;45905;-65
2022/04/09 13:14:51;;;;;;;;;7.00;7.00;;;;;;;;5041314;28;45395;-64
2022/04/09 13:17:17;;;;;;;;;3.00;3.00;;;;;;;;5049959;28;45457;-66
2022/04/09 13:19:42;;;;;;;;;6.75;5.75;;;;;;;;5025859;28;46283;-66
2022/04/09 13:22:07;;;;;;;;;5.50;5.50;;;;;;;;5035381;28;46991;-66
2022/04/09 13:24:32;;;;;;;;;7.00;5.00;;;;;;;;5025042;28;45482;-66
2022/04/09 13:26:58;;;;;;;;;5.00;5.00;;;;;;;;5021531;28;45460;-66
2022/04/09 13:29:23;;;;;;;;;6.50;6.50;;;;;;;;5029996;28;47684;-67
2022/04/09 13:31:48;;;;;;;;;7.25;7.25;;;;;;;;5025032;28;45373;-64
2022/04/09 13:34:17;;;;;;;;;4.00;4.00;;;;;;;;5039423;28;45623;-65
2022/04/09 13:36:43;;;;;;;;;6.00;6.00;;;;;;;;5037135;28;45499;-65
2022/04/09 13:39:09;;;;;;;;;5.00;5.00;;;;;;;;5034464;28;46356;-67
2022/04/09 13:41:35;;;;;;;;;5.75;5.75;;;;;;;;5050534;28;45778;-65
2022/04/09 13:44:00;;;;;;;;;6.25;6.25;;;;;;;;5029804;28;45314;-66
2022/04/09 13:46:25;;;;;;;;;4.00;4.00;;;;;;;;5043709;28;45500;-65
2022/04/09 13:48:50;;;;;;;;;7.25;7.25;;;;;;;;5038219;28;45612;-66
2022/04/09 13:51:16;;;;;;;;;5.00;5.00;;;;;;;;5035225;28;45411;-65
2022/04/09 13:53:41;;;;;;;;;6.75;6.75;;;;;;;;5051700;28;45418;-66
2022/04/09 13:56:06;;;;;;;;;7.25;7.25;;;;;;;;5031083;28;45390;-66
2022/04/09 13:58:31;;;;;;;;;7.25;7.25;;;;;;;;5039211;28;47538;-65
2022/04/09 14:00:57;;;;;;;;;8.00;7.00;;;;;;;;5035616;28;45423;-66
2022/04/09 14:03:22;;;;;;;;;6.75;6.75;;;;;;;;5037180;28;45547;-66
2022/04/09 14:05:48;;;;;;;;;7.75;7.75;;;;;;;;5040614;28;45688;-64
2022/04/09 14:08:13;;;;;;;;;8.75;8.00;;;;;;;;5024648;28;47018;-66
2022/04/09 14:10:38;;;;;;;;;8.00;7.50;;;;;;;;5030926;28;45343;-64
2022/04/09 14:13:03;;;;;;;;;4.50;4.50;;;;;;;;5021684;28;45533;-65
2022/04/09 14:15:29;;;;;;;;;5.50;5.50;;;;;;;;5029103;28;45508;-65
2022/04/09 14:17:54;;;;;;;;;6.75;6.75;;;;;;;;5031426;28;46095;-65
2022/04/09 14:20:19;;;;;;;;;6.25;5.75;;;;;;;;5034348;28;45352;-65
2022/04/09 14:22:44;;;;;;;;;6.00;6.00;;;;;;;;5043435;28;45325;-66
2022/04/09 14:25:10;;;;;;;;;6.50;6.50;;;;;;;;5032671;28;45458;-66